Time;durP1;ratioP1;P1;durP2;ratioP2;P2;SDS_P1;SDS_P2;PMS_P1;PMS_P2;Temp;Humidity;BMP_temperature;BMP_pressure;BME280_temperature;BME280_humidity;BME280_pressure;Samples;Min_cycle;Max_cycle;Signal;HPM_P1;HPM_P2
2022/05/17 00:02:14;;;;;;;7.53;3.60;;;15.80;99.90;;;;;;4992162;28;20437;-78
2022/05/17 00:04:40;;;;;;;6.70;3.67;;;15.90;99.90;;;;;;4993578;28;20185;-78
2022/05/17 00:07:05;;;;;;;6.53;5.40;;;15.90;99.90;;;;;;4992738;28;20304;-78
2022/05/17 00:09:32;;;;;;;4.60;3.33;;;15.90;99.90;;;;;;4993164;28;20186;-77
2022/05/17 00:11:59;;;;;;;5.57;3.63;;;15.90;99.90;;;;;;4993109;28;20693;-78
2022/05/17 00:14:26;;;;;;;5.87;3.03;;;15.90;99.90;;;;;;4992748;28;20464;-77
2022/05/17 00:16:51;;;;;;;4.63;3.53;;;15.80;99.90;;;;;;4992031;28;20444;-78
2022/05/17 00:19:20;;;;;;;4.80;3.50;;;15.80;99.90;;;;;;4993030;28;20417;-78
2022/05/17 00:21:47;;;;;;;4.77;3.00;;;15.70;99.90;;;;;;4993251;28;20185;-78
2022/05/17 00:24:14;;;;;;;5.00;3.43;;;15.70;99.90;;;;;;4994339;28;20417;-77
2022/05/17 00:26:41;;;;;;;6.97;3.73;;;15.60;99.90;;;;;;4992927;28;20971;-78
2022/05/17 00:29:07;;;;;;;4.27;3.10;;;15.60;99.90;;;;;;4992798;28;20420;-78
2022/05/17 00:31:34;;;;;;;5.47;3.50;;;15.60;99.90;;;;;;4993323;28;20437;-77
2022/05/17 00:34:02;;;;;;;4.87;3.27;;;15.60;99.90;;;;;;4992890;28;20482;-77
2022/05/17 00:36:29;;;;;;;5.90;3.10;;;15.50;99.90;;;;;;4992672;28;20479;-78
2022/05/17 00:38:55;;;;;;;5.57;3.60;;;15.50;99.90;;;;;;4992687;28;20498;-77
2022/05/17 00:41:20;;;;;;;7.70;4.00;;;15.50;99.90;;;;;;4992675;28;20932;-77
2022/05/17 00:47:09;;;;;;;5.43;3.10;;;15.50;99.90;;;;;;4994379;28;20633;-78
2022/05/17 00:49:56;;;;;;;7.00;3.70;;;15.50;99.90;;;;;;4958565;28;20521;-78
2022/05/17 00:52:38;;;;;;;6.23;3.20;;;15.40;99.90;;;;;;4986256;28;20443;-77
2022/05/17 00:55:14;;;;;;;5.83;3.47;;;15.50;99.90;;;;;;4992937;28;20518;-77
2022/05/17 00:58:09;;;;;;;5.03;3.30;;;15.50;99.90;;;;;;4992529;28;20445;-78
2022/05/17 01:00:39;;;;;;;5.13;3.60;;;15.40;99.90;;;;;;4992543;28;20452;-78
2022/05/17 01:03:09;;;;;;;4.53;2.93;;;15.40;99.90;;;;;;4993432;28;20494;-77
2022/05/17 01:05:42;;;;;;;5.90;3.30;;;15.40;99.90;;;;;;4994200;28;20766;-77
2022/05/17 01:08:10;;;;;;;5.40;3.53;;;15.40;99.90;;;;;;4993744;28;20451;-78
2022/05/17 01:10:37;;;;;;;4.53;3.30;;;15.30;99.90;;;;;;4992911;28;20425;-78
2022/05/17 01:15:47;;;;;;;6.77;3.70;;;15.20;99.90;;;;;;4998217;28;20416;-78
2022/05/17 01:18:13;;;;;;;6.07;3.60;;;15.10;99.90;;;;;;4996643;28;20528;-77
2022/05/17 01:20:39;;;;;;;5.80;3.43;;;15.10;99.90;;;;;;4995677;28;20178;-78
2022/05/17 01:23:05;;;;;;;5.77;3.47;;;15.10;99.90;;;;;;4995555;28;20427;-78
2022/05/17 01:25:33;;;;;;;5.77;3.13;;;15.00;99.90;;;;;;4995704;28;20420;-78
2022/05/17 01:28:21;;;;;;;7.20;3.97;;;14.90;99.90;;;;;;4995395;28;20443;-78
2022/05/17 01:30:47;;;;;;;5.50;3.50;;;14.90;99.90;;;;;;4995306;28;20421;-78
2022/05/17 01:33:18;;;;;;;5.60;3.50;;;14.80;99.90;;;;;;4995441;28;20416;-78
2022/05/17 01:35:44;;;;;;;5.77;3.70;;;14.70;99.90;;;;;;4995791;28;20413;-77
2022/05/17 01:38:10;;;;;;;5.70;3.53;;;14.80;99.90;;;;;;4995428;28;20506;-78
2022/05/17 01:40:37;;;;;;;5.70;4.47;;;14.80;99.90;;;;;;4995180;28;20475;-78
2022/05/17 01:43:04;;;;;;;5.13;3.90;;;14.80;99.90;;;;;;4995417;28;20428;-78
2022/05/17 01:45:30;;;;;;;5.17;3.93;;;14.80;99.90;;;;;;4995591;28;20472;-78
2022/05/17 01:47:56;;;;;;;5.33;3.90;;;14.70;99.90;;;;;;4995329;28;20528;-77
2022/05/17 01:50:22;;;;;;;5.63;4.60;;;14.70;99.90;;;;;;4994908;28;20840;-77
2022/05/17 01:52:48;;;;;;;6.60;3.53;;;14.60;99.90;;;;;;4995393;28;20645;-78
2022/05/17 01:55:14;;;;;;;7.27;3.63;;;14.60;99.90;;;;;;4995428;28;20295;-77
2022/05/17 01:57:40;;;;;;;4.50;3.40;;;14.60;99.90;;;;;;4995557;28;20429;-77
2022/05/17 02:00:09;;;;;;;8.67;3.90;;;14.50;99.90;;;;;;4994970;28;20425;-78
2022/05/17 02:02:36;;;;;;;4.70;3.20;;;14.50;99.90;;;;;;4995070;28;20448;-78
2022/05/17 02:05:06;;;;;;;6.57;3.50;;;14.40;99.90;;;;;;4995317;28;20483;-77
2022/05/17 02:07:32;;;;;;;5.10;3.90;;;14.50;99.90;;;;;;4995676;28;20483;-78
2022/05/17 02:09:58;;;;;;;4.20;3.60;;;14.60;99.90;;;;;;4995798;28;20457;-78
2022/05/17 02:12:24;;;;;;;4.90;3.50;;;14.60;99.90;;;;;;4994797;28;20178;-78
2022/05/17 02:14:49;;;;;;;4.80;3.43;;;14.60;99.90;;;;;;4995074;28;20213;-78
2022/05/17 02:17:15;;;;;;;7.37;4.10;;;14.70;99.90;;;;;;4995301;28;20200;-78
2022/05/17 02:19:41;;;;;;;8.40;3.40;;;14.60;99.90;;;;;;4995099;28;20301;-78
2022/05/17 02:22:07;;;;;;;5.67;3.43;;;14.60;99.90;;;;;;4994206;28;20786;-77
2022/05/17 02:24:33;;;;;;;5.73;4.03;;;14.40;99.90;;;;;;4994120;28;20194;-77
2022/05/17 02:26:59;;;;;;;4.70;3.47;;;14.40;99.90;;;;;;4994709;28;20205;-77
2022/05/17 02:29:25;;;;;;;6.33;4.27;;;14.30;99.90;;;;;;4994752;28;20429;-77
2022/05/17 02:31:52;;;;;;;7.37;4.40;;;14.30;99.90;;;;;;4994881;28;20185;-77
2022/05/17 02:34:19;;;;;;;6.47;3.70;;;14.30;99.90;;;;;;4994603;28;20464;-77
2022/05/17 02:36:44;;;;;;;5.90;4.23;;;14.40;99.90;;;;;;4994952;28;20440;-78
2022/05/17 02:39:11;;;;;;;6.10;3.47;;;14.40;99.90;;;;;;4994091;28;20431;-78
2022/05/17 02:41:37;;;;;;;7.23;4.57;;;14.40;99.90;;;;;;4994103;28;20174;-78
2022/05/17 02:44:03;;;;;;;6.00;3.93;;;14.30;99.90;;;;;;4994235;28;20842;-78
2022/05/17 02:46:31;;;;;;;5.70;4.30;;;14.30;99.90;;;;;;4994572;28;20197;-77
2022/05/17 02:48:58;;;;;;;8.47;4.30;;;14.30;99.90;;;;;;4994011;28;20429;-78
2022/05/17 02:51:24;;;;;;;5.77;3.90;;;14.30;99.90;;;;;;4993895;28;20425;-78
2022/05/17 02:53:50;;;;;;;6.77;4.10;;;14.20;99.90;;;;;;4994359;28;20526;-78
2022/05/17 02:56:16;;;;;;;6.20;3.70;;;14.20;99.90;;;;;;4994035;28;20492;-78
2022/05/17 02:58:42;;;;;;;8.00;3.40;;;14.20;99.90;;;;;;4994256;28;20181;-78
2022/05/17 03:01:08;;;;;;;5.63;4.03;;;14.20;99.90;;;;;;4993625;28;20421;-78
2022/05/17 03:03:40;;;;;;;5.30;4.23;;;14.20;99.90;;;;;;4994550;28;20197;-78
2022/05/17 03:06:07;;;;;;;5.23;4.13;;;14.10;99.90;;;;;;4994185;28;20428;-78
2022/05/17 03:08:33;;;;;;;5.80;4.37;;;14.10;99.90;;;;;;4994264;28;20421;-78
2022/05/17 03:10:59;;;;;;;8.73;4.50;;;14.20;99.90;;;;;;4993527;28;20447;-77
2022/05/17 03:13:25;;;;;;;5.63;3.83;;;14.20;99.90;;;;;;4993809;28;20928;-78
2022/05/17 03:15:51;;;;;;;5.30;4.23;;;14.10;99.90;;;;;;4994423;28;20425;-77
2022/05/17 03:18:17;;;;;;;7.67;3.90;;;14.10;99.90;;;;;;4994766;28;20444;-78
2022/05/17 03:20:43;;;;;;;6.07;4.30;;;14.10;99.90;;;;;;4995927;28;20423;-78
2022/05/17 03:23:09;;;;;;;7.13;3.90;;;14.10;99.90;;;;;;4994346;28;20917;-78
2022/05/17 03:25:36;;;;;;;6.10;4.70;;;14.00;99.90;;;;;;4994694;28;20424;-78
2022/05/17 03:28:01;;;;;;;6.87;4.63;;;14.10;99.90;;;;;;4995018;28;20448;-78
2022/05/17 03:30:27;;;;;;;5.47;3.87;;;14.10;99.90;;;;;;4994737;28;20421;-77
2022/05/17 03:32:53;;;;;;;7.50;4.43;;;14.10;99.90;;;;;;4994646;28;20217;-78
2022/05/17 03:35:20;;;;;;;5.83;3.63;;;14.20;99.90;;;;;;4994690;28;20221;-78
2022/05/17 03:37:45;;;;;;;7.60;4.53;;;14.20;99.90;;;;;;4994258;28;20472;-78
2022/05/17 03:40:12;;;;;;;9.00;4.60;;;14.10;99.90;;;;;;4994799;28;20420;-78
2022/05/17 03:42:38;;;;;;;5.30;3.63;;;14.10;99.90;;;;;;4994258;28;20178;-78
2022/05/17 03:45:04;;;;;;;6.03;3.83;;;14.10;99.90;;;;;;4993932;28;20432;-78
2022/05/17 03:47:30;;;;;;;5.27;3.43;;;14.20;99.90;;;;;;4994230;28;20448;-78
2022/05/17 03:49:56;;;;;;;5.53;3.70;;;14.20;99.90;;;;;;4993900;28;20433;-77
2022/05/17 03:52:26;;;;;;;6.70;4.30;;;14.30;99.90;;;;;;4994247;28;20820;-78
2022/05/17 03:54:56;;;;;;;6.63;4.20;;;14.30;99.90;;;;;;4994113;28;20992;-78
2022/05/17 03:57:23;;;;;;;7.03;4.00;;;14.30;99.90;;;;;;4994480;28;20433;-78
2022/05/17 03:59:49;;;;;;;5.00;4.00;;;14.40;99.90;;;;;;4993907;28;20937;-78
2022/05/17 04:02:15;;;;;;;7.93;3.73;;;14.60;99.90;;;;;;4994114;28;20459;-77
2022/05/17 04:04:42;;;;;;;5.20;3.73;;;14.70;99.90;;;;;;4978772;28;20464;-78
2022/05/17 04:07:08;;;;;;;5.73;3.83;;;14.80;99.90;;;;;;4993429;28;20464;-78
2022/05/17 04:09:33;;;;;;;5.50;3.83;;;14.90;99.90;;;;;;4993746;28;20204;-77
2022/05/17 04:12:04;;;;;;;7.80;4.17;;;14.90;99.90;;;;;;4993589;28;20213;-77
2022/05/17 04:14:30;;;;;;;7.00;3.37;;;14.90;99.90;;;;;;4993325;28;20213;-78
2022/05/17 04:16:56;;;;;;;7.90;4.13;;;15.00;99.90;;;;;;4993708;28;20960;-78
2022/05/17 04:19:22;;;;;;;6.33;4.17;;;15.00;99.90;;;;;;4994242;28;20436;-78
2022/05/17 04:21:48;;;;;;;4.87;3.60;;;15.10;99.90;;;;;;4994210;28;20421;-78
2022/05/17 04:24:14;;;;;;;6.20;3.70;;;15.10;99.90;;;;;;4995126;28;20436;-78
2022/05/17 04:26:41;;;;;;;7.43;4.07;;;15.20;99.90;;;;;;4994297;28;20452;-78
2022/05/17 04:29:08;;;;;;;6.40;3.73;;;15.30;99.90;;;;;;4994261;28;20447;-78
2022/05/17 04:31:36;;;;;;;6.90;4.77;;;15.50;99.90;;;;;;4994148;28;20436;-78
2022/05/17 04:34:03;;;;;;;7.93;4.57;;;15.60;99.90;;;;;;4993569;28;21019;-78
2022/05/17 04:36:29;;;;;;;6.60;4.40;;;15.70;99.90;;;;;;4994182;28;20788;-78
2022/05/17 04:38:55;;;;;;;8.10;4.60;;;15.90;99.90;;;;;;4993484;28;20423;-77
2022/05/17 04:41:21;;;;;;;6.47;4.47;;;16.00;99.90;;;;;;4993513;28;20521;-78
2022/05/17 04:43:47;;;;;;;6.27;4.33;;;16.10;99.90;;;;;;4993860;28;20459;-78
2022/05/17 04:46:13;;;;;;;6.67;4.47;;;16.20;99.90;;;;;;4994820;28;20190;-78
2022/05/17 04:48:39;;;;;;;6.47;4.80;;;16.30;99.90;;;;;;4995946;28;20482;-78
2022/05/17 04:51:12;;;;;;;6.23;4.00;;;16.30;99.90;;;;;;4998017;28;20671;-78
2022/05/17 04:53:40;;;;;;;6.07;4.30;;;16.40;99.90;;;;;;4997773;28;20489;-78
2022/05/17 04:56:07;;;;;;;4.80;3.73;;;16.40;99.90;;;;;;4998750;28;21058;-77
2022/05/17 04:58:34;;;;;;;7.67;3.97;;;16.40;99.90;;;;;;4998188;28;20508;-78
2022/05/17 05:01:00;;;;;;;9.37;4.10;;;16.50;99.90;;;;;;4998257;28;20962;-78
2022/05/17 05:03:27;;;;;;;5.87;4.23;;;16.60;99.90;;;;;;5047134;23;20588;-82
2022/05/17 05:05:52;;;;;;;9.10;5.30;;;16.60;99.90;;;;;;5035340;28;20407;-83
2022/05/17 05:08:18;;;;;;;11.90;5.23;;;16.70;99.90;;;;;;5035367;28;20402;-82
2022/05/17 05:10:45;;;;;;;6.97;4.67;;;16.90;99.90;;;;;;5033999;28;20615;-82
2022/05/17 05:13:15;;;;;;;8.73;5.60;;;16.90;99.90;;;;;;5035430;28;20223;-82
2022/05/17 05:15:41;;;;;;;11.03;4.50;;;17.00;99.90;;;;;;5035265;28;20561;-82
2022/05/17 05:18:07;;;;;;;5.50;3.50;;;17.00;99.90;;;;;;5035581;28;20498;-82
2022/05/17 05:20:32;;;;;;;6.77;4.20;;;17.10;99.90;;;;;;5033940;28;20172;-83
2022/05/17 05:22:58;;;;;;;6.10;4.47;;;17.20;99.90;;;;;;5035300;28;20246;-82
2022/05/17 05:25:23;;;;;;;6.63;4.10;;;17.20;99.90;;;;;;5036060;28;20226;-83
2022/05/17 05:27:49;;;;;;;11.40;4.47;;;17.20;99.90;;;;;;5037392;28;20212;-83
2022/05/17 05:30:18;;;;;;;7.63;4.07;;;17.30;99.90;;;;;;5038450;28;20181;-83
2022/05/17 05:32:46;;;;;;;7.87;4.10;;;17.30;99.90;;;;;;5039794;28;20556;-83
2022/05/17 05:35:15;;;;;;;8.83;4.60;;;17.30;99.90;;;;;;5039803;28;20454;-83
2022/05/17 05:37:40;;;;;;;7.17;4.60;;;17.30;99.90;;;;;;5039368;28;20420;-80
2022/05/17 05:40:08;;;;;;;6.97;4.07;;;17.30;99.90;;;;;;5040053;28;20414;-80
2022/05/17 05:42:33;;;;;;;7.07;4.77;;;17.30;99.90;;;;;;5039092;28;20587;-83
2022/05/17 05:44:59;;;;;;;7.30;4.33;;;17.50;99.90;;;;;;5039745;28;20411;-84
2022/05/17 05:47:25;;;;;;;9.43;4.50;;;17.50;99.90;;;;;;5040176;28;20204;-82
2022/05/17 05:49:50;;;;;;;4.70;3.30;;;17.60;99.90;;;;;;5039788;28;20177;-83
2022/05/17 05:52:16;;;;;;;5.47;3.73;;;17.60;99.90;;;;;;5039793;28;20223;-80
2022/05/17 05:54:42;;;;;;;5.17;3.87;;;17.70;99.90;;;;;;5038766;28;20232;-80
2022/05/17 05:57:08;;;;;;;4.47;3.60;;;17.70;99.90;;;;;;5039551;28;20176;-80
2022/05/17 05:59:34;;;;;;;6.07;4.20;;;17.70;99.90;;;;;;5038102;28;20284;-79
2022/05/17 06:01:59;;;;;;;7.90;5.57;;;17.70;99.90;;;;;;5038771;28;20447;-80
2022/05/17 06:04:28;;;;;;;8.07;4.20;;;17.80;99.90;;;;;;5040396;28;20165;-80
2022/05/17 06:06:56;;;;;;;8.63;4.23;;;17.90;99.90;;;;;;5039714;28;20548;-80
2022/05/17 06:09:22;;;;;;;10.13;5.00;;;17.90;99.90;;;;;;5038616;28;20434;-80
2022/05/17 06:11:48;;;;;;;7.17;4.70;;;18.00;99.90;;;;;;5039237;28;20951;-80
2022/05/17 06:14:13;;;;;;;5.83;4.10;;;18.10;99.90;;;;;;5038021;28;20907;-80
2022/05/17 06:16:39;;;;;;;4.20;3.47;;;18.30;99.90;;;;;;5037365;28;20204;-80
2022/05/17 06:19:04;;;;;;;7.43;4.70;;;18.40;99.90;;;;;;5037897;28;20227;-80
2022/05/17 06:21:30;;;;;;;5.60;4.20;;;18.50;99.90;;;;;;5038027;28;20230;-80
2022/05/17 06:23:55;;;;;;;7.63;3.70;;;18.60;99.90;;;;;;5037827;28;20578;-80
2022/05/17 06:26:21;;;;;;;7.03;4.10;;;18.60;99.90;;;;;;5037685;28;20189;-81
2022/05/17 06:28:46;;;;;;;5.60;3.53;;;18.70;99.90;;;;;;5039206;28;20230;-80
2022/05/17 06:31:12;;;;;;;5.20;3.40;;;18.90;99.90;;;;;;5037877;28;20173;-80
2022/05/17 06:33:39;;;;;;;6.30;4.33;;;19.00;99.90;;;;;;5037585;28;20208;-80
2022/05/17 06:36:05;;;;;;;7.47;4.73;;;19.10;99.90;;;;;;5036906;28;20192;-80
2022/05/17 06:38:31;;;;;;;5.50;4.40;;;19.30;99.90;;;;;;5036925;28;20419;-80
2022/05/17 06:40:57;;;;;;;5.30;3.87;;;19.40;99.90;;;;;;5036600;28;20411;-80
2022/05/17 06:43:23;;;;;;;5.67;3.53;;;19.60;99.90;;;;;;5036858;28;20439;-80
2022/05/17 06:45:48;;;;;;;8.27;4.30;;;19.70;99.90;;;;;;5037772;28;20204;-80
2022/05/17 06:48:14;;;;;;;5.33;4.20;;;19.80;99.90;;;;;;5037972;28;20173;-80
2022/05/17 06:50:40;;;;;;;7.77;4.13;;;19.80;99.90;;;;;;5037387;28;20169;-80
2022/05/17 06:53:07;;;;;;;5.77;3.53;;;19.80;99.90;;;;;;5035263;28;20693;-80
2022/05/17 06:55:33;;;;;;;7.53;4.13;;;19.80;99.90;;;;;;5037720;28;20203;-80
2022/05/17 06:57:59;;;;;;;9.03;4.90;;;19.90;99.90;;;;;;5037091;28;20419;-80
2022/05/17 07:00:26;;;;;;;5.43;3.77;;;19.90;99.90;;;;;;5037467;28;20422;-80
2022/05/17 07:02:52;;;;;;;5.23;3.37;;;19.90;99.90;;;;;;5037239;28;20678;-80
2022/05/17 07:05:17;;;;;;;5.90;4.67;;;20.10;99.90;;;;;;5037531;28;20485;-80
2022/05/17 07:07:43;;;;;;;6.20;3.73;;;20.30;99.90;;;;;;5035710;28;20188;-80
2022/05/17 07:13:08;;;;;;;5.47;3.90;;;20.90;99.90;;;;;;5015866;28;20228;-80
2022/05/17 07:15:39;;;;;;;5.50;3.43;;;21.20;99.90;;;;;;5037414;28;20438;-81
2022/05/17 07:18:06;;;;;;;5.33;4.00;;;21.40;99.90;;;;;;5036615;28;20415;-80
2022/05/17 07:20:32;;;;;;;10.90;4.13;;;21.40;99.90;;;;;;5036091;28;20906;-83
2022/05/17 07:22:57;;;;;;;4.90;4.00;;;21.40;99.90;;;;;;5034431;28;20988;-82
2022/05/17 07:25:23;;;;;;;8.63;4.50;;;21.50;99.90;;;;;;5036811;28;20419;-83
2022/05/17 07:27:49;;;;;;;6.10;4.00;;;21.70;99.90;;;;;;5036835;28;20187;-83
2022/05/17 07:30:14;;;;;;;7.17;4.70;;;21.70;99.90;;;;;;5035794;28;20192;-83
2022/05/17 07:32:40;;;;;;;6.03;4.20;;;21.90;99.90;;;;;;5037179;28;20565;-83
2022/05/17 07:35:07;;;;;;;5.17;4.67;;;22.00;99.90;;;;;;5037114;28;20809;-84
2022/05/17 07:37:33;;;;;;;7.17;4.90;;;22.00;99.90;;;;;;5035794;28;20203;-83
2022/05/17 07:39:59;;;;;;;6.87;4.23;;;22.20;99.90;;;;;;5036536;28;20415;-83
2022/05/17 07:42:25;;;;;;;9.60;4.90;;;22.30;99.90;;;;;;5035281;28;20867;-83
2022/05/17 07:44:51;;;;;;;7.33;4.60;;;22.40;99.90;;;;;;5035965;28;20832;-83
2022/05/17 07:47:17;;;;;;;6.63;3.80;;;22.50;99.90;;;;;;5035361;28;20423;-83
2022/05/17 07:49:42;;;;;;;8.07;4.53;;;22.50;99.90;;;;;;5035658;28;20177;-83
2022/05/17 07:52:10;;;;;;;6.70;3.97;;;22.50;99.90;;;;;;5034484;28;20204;-83
2022/05/17 07:54:37;;;;;;;7.20;3.50;;;22.70;99.90;;;;;;5036290;28;20317;-83
2022/05/17 07:57:04;;;;;;;7.10;4.27;;;22.80;99.90;;;;;;5036288;28;20441;-83
2022/05/17 07:59:30;;;;;;;8.10;4.00;;;23.10;99.90;;;;;;5036481;28;20415;-83
2022/05/17 08:01:55;;;;;;;6.30;4.20;;;23.40;99.90;;;;;;5035486;28;20523;-83
2022/05/17 08:04:23;;;;;;;6.60;4.37;;;23.50;99.90;;;;;;5034706;28;20632;-82
2022/05/17 08:06:49;;;;;;;6.90;4.60;;;23.70;99.90;;;;;;5036193;28;20176;-81
2022/05/17 08:09:14;;;;;;;5.03;3.80;;;24.00;99.90;;;;;;5035010;28;20414;-80
2022/05/17 08:11:40;;;;;;;6.23;4.20;;;24.10;99.90;;;;;;5033542;28;20938;-81
2022/05/17 08:14:06;;;;;;;7.30;4.13;;;24.30;99.90;;;;;;5035078;28;20203;-80
2022/05/17 08:16:31;;;;;;;7.40;4.40;;;24.40;99.90;;;;;;5032057;28;20175;-80
2022/05/17 08:18:57;;;;;;;5.90;4.03;;;24.70;99.90;;;;;;5032477;28;20187;-81
2022/05/17 08:21:22;;;;;;;9.30;6.33;;;25.10;99.90;;;;;;5030792;28;20196;-83
2022/05/17 08:23:48;;;;;;;6.60;4.50;;;25.30;99.90;;;;;;5031532;28;20185;-79
2022/05/17 08:28:57;;;;;;;6.87;4.90;;;26.00;99.90;;;;;;5032425;28;20176;-79
2022/05/17 08:31:23;;;;;;;6.93;4.73;;;26.10;99.90;;;;;;5031720;28;20910;-79
2022/05/17 08:33:50;;;;;;;7.37;4.70;;;26.00;99.90;;;;;;5032340;28;20204;-79
2022/05/17 08:36:16;;;;;;;7.07;4.57;;;26.20;99.90;;;;;;5030009;28;20453;-79
2022/05/17 08:38:49;;;;;;;8.63;4.90;;;26.10;99.90;;;;;;5020149;28;20419;-79
2022/05/17 08:41:37;;;;;;;7.70;5.03;;;25.80;99.90;;;;;;5012210;28;20251;-79
2022/05/17 08:44:08;;;;;;;7.93;5.27;;;25.40;99.90;;;;;;5012532;28;20416;-79
2022/05/17 08:47:05;;;;;;;6.97;5.10;;;25.20;99.90;;;;;;5012590;28;20396;-79
2022/05/17 08:49:37;;;;;;;9.00;4.57;;;25.00;99.90;;;;;;5012656;28;20913;-80
2022/05/17 08:52:11;;;;;;;7.37;4.77;;;25.10;99.90;;;;;;5012400;28;20801;-81
2022/05/17 08:54:48;;;;;;;6.53;4.97;;;25.20;99.90;;;;;;5011185;28;20879;-81
2022/05/17 08:57:42;;;;;;;8.70;4.50;;;25.00;99.90;;;;;;5012291;28;20396;-80
2022/05/17 09:00:45;;;;;;;6.40;4.60;;;25.40;99.90;;;;;;5012179;28;20502;-80
2022/05/17 09:03:35;;;;;;;5.27;3.57;;;26.40;99.90;;;;;;4970991;28;20544;-80
2022/05/17 09:06:23;;;;;;;5.63;3.70;;;26.60;99.90;;;;;;5009179;28;20420;-78
2022/05/17 09:09:02;;;;;;;6.97;4.27;;;26.90;99.90;;;;;;5012618;28;20483;-80
2022/05/17 09:11:57;;;;;;;7.87;4.10;;;27.10;99.90;;;;;;5027099;28;20419;-81
2022/05/17 09:14:30;;;;;;;5.03;3.47;;;26.70;99.90;;;;;;5027363;28;21045;-80
2022/05/17 09:17:10;;;;;;;6.73;4.03;;;26.50;99.90;;;;;;5020995;28;20412;-81
2022/05/17 09:19:36;;;;;;;4.80;3.10;;;26.40;99.90;;;;;;5031955;28;20391;-82
2022/05/17 09:22:03;;;;;;;6.50;3.97;;;26.50;99.90;;;;;;5031768;28;20427;-82
2022/05/17 09:24:35;;;;;;;5.73;3.60;;;26.60;99.90;;;;;;5031025;28;20506;-82
2022/05/17 09:27:07;;;;;;;6.60;3.53;;;26.50;99.90;;;;;;5030810;28;20426;-81
2022/05/17 09:29:46;;;;;;;6.60;3.53;;;26.50;99.90;;;;;;5030774;28;21029;-81
2022/05/17 09:32:22;;;;;;;5.30;3.20;;;26.50;99.90;;;;;;5031295;28;20446;-80
2022/05/17 09:35:11;;;;;;;5.73;3.83;;;26.50;99.90;;;;;;5034050;28;20484;-81
2022/05/17 09:37:40;;;;;;;4.13;3.43;;;26.60;99.90;;;;;;5035727;28;20435;-82
2022/05/17 09:40:09;;;;;;;4.70;3.03;;;26.70;99.90;;;;;;5034956;28;20913;-81
2022/05/17 09:42:42;;;;;;;6.70;3.20;;;26.70;99.90;;;;;;5034688;28;20435;-81
2022/05/17 09:45:15;;;;;;;4.27;3.63;;;26.60;99.90;;;;;;5034540;28;20407;-80
2022/05/17 09:47:55;;;;;;;4.70;2.10;;;26.70;99.90;;;;;;5035362;28;21343;-80
2022/05/17 09:53:14;;;;;;;3.73;2.40;;;26.50;99.90;;;;;;5035080;28;20477;-81
2022/05/17 09:55:43;;;;;;;3.20;2.43;;;26.60;99.90;;;;;;5034174;28;20469;-80
2022/05/17 09:58:10;;;;;;;6.03;2.90;;;26.60;99.90;;;;;;5034892;28;20518;-82
2022/05/17 10:00:42;;;;;;;6.03;3.27;;;26.70;99.90;;;;;;5034585;28;20430;-80
2022/05/17 10:03:28;;;;;;;4.70;2.43;;;26.70;99.90;;;;;;5033424;28;20543;-81
2022/05/17 10:06:12;;;;;;;5.80;3.10;;;26.70;99.90;;;;;;5034653;28;20400;-79
2022/05/17 10:09:00;;;;;;;4.60;2.73;;;26.80;99.90;;;;;;5034109;28;20449;-80
2022/05/17 10:11:28;;;;;;;4.30;2.17;;;26.60;99.90;;;;;;5033914;28;20413;-80
2022/05/17 10:13:58;;;;;;;3.63;2.50;;;26.80;99.90;;;;;;5033054;28;20454;-79
2022/05/17 10:16:44;;;;;;;3.60;2.33;;;27.10;99.90;;;;;;5034343;28;20455;-79
2022/05/17 10:19:27;;;;;;;4.40;2.23;;;27.30;99.90;;;;;;5022557;28;20423;-79
2022/05/17 10:21:59;;;;;;;4.57;2.13;;;27.50;99.90;;;;;;5032642;28;20438;-79
2022/05/17 10:24:30;;;;;;;3.20;2.27;;;27.50;99.90;;;;;;5034015;28;20447;-79
2022/05/17 10:27:11;;;;;;;3.77;2.30;;;27.40;99.90;;;;;;5034285;28;20411;-80
2022/05/17 10:29:51;;;;;;;3.47;2.10;;;27.30;99.90;;;;;;5032680;28;20426;-80
2022/05/17 10:32:42;;;;;;;3.77;2.10;;;27.20;99.90;;;;;;5033605;28;20431;-80
2022/05/17 10:35:16;;;;;;;4.03;2.83;;;27.40;99.90;;;;;;5033913;28;20458;-79
2022/05/17 10:37:53;;;;;;;6.20;3.40;;;27.60;99.90;;;;;;5033564;28;20799;-79
2022/05/17 10:40:34;;;;;;;4.97;3.33;;;27.80;99.90;;;;;;5033606;28;20438;-79
2022/05/17 10:43:03;;;;;;;4.50;2.63;;;28.00;99.90;;;;;;5036356;28;20427;-79
2022/05/17 10:45:33;;;;;;;5.10;2.40;;;28.00;99.90;;;;;;5037375;28;20411;-79
2022/05/17 10:48:16;;;;;;;4.57;2.47;;;28.00;99.90;;;;;;5037642;28;20418;-80
2022/05/17 10:51:07;;;;;;;3.77;2.47;;;28.20;99.90;;;;;;5037980;28;20839;-79
2022/05/17 10:54:10;;;;;;;3.87;2.10;;;28.60;99.90;;;;;;5038354;28;20446;-79
2022/05/17 10:56:47;;;;;;;4.93;2.47;;;28.90;99.20;;;;;;5038372;28;20820;-79
2022/05/17 10:59:38;;;;;;;2.87;1.40;;;28.70;95.80;;;;;;5037293;28;20403;-79
2022/05/17 11:02:15;;;;;;;3.17;1.30;;;28.80;95.70;;;;;;5038130;28;20447;-79
2022/05/17 11:07:46;;;;;;;4.07;1.87;;;28.90;93.90;;;;;;5021326;28;20483;-83
2022/05/17 11:10:33;;;;;;;2.97;1.40;;;28.80;93.40;;;;;;5025021;28;20419;-83
2022/05/17 11:13:28;;;;;;;3.70;1.90;;;28.70;93.30;;;;;;5031087;28;20760;-83
2022/05/17 11:16:44;;;;;;;3.10;1.63;;;28.50;92.70;;;;;;5000319;28;20580;-83
2022/05/17 11:19:38;;;;;;;2.83;1.63;;;28.40;94.90;;;;;;5025736;28;20469;-83
2022/05/17 11:22:50;;;;;;;3.93;1.70;;;28.20;94.60;;;;;;5032821;28;20427;-83
2022/05/17 11:25:40;;;;;;;3.33;1.73;;;28.00;93.20;;;;;;5003560;28;20854;-83
2022/05/17 11:28:44;;;;;;;3.00;1.70;;;28.00;95.60;;;;;;5031691;28;20474;-83
2022/05/17 11:31:37;;;;;;;4.43;2.00;;;28.00;95.40;;;;;;5023182;28;20430;-83
2022/05/17 11:34:22;;;;;;;3.40;1.70;;;27.70;96.70;;;;;;5031486;28;20463;-83
2022/05/17 11:40:07;;;;;;;3.60;1.70;;;27.80;98.80;;;;;;5012682;28;20787;-82
2022/05/17 11:43:40;;;;;;;3.20;1.20;;;28.00;97.00;;;;;;5031303;28;20423;-83
2022/05/17 11:45:50;;;;;;;3.47;1.50;;;28.20;98.90;;;;;;5032316;28;20812;-82
2022/05/17 11:48:19;;;;;;;3.43;2.03;;;28.20;96.40;;;;;;5032232;28;20408;-81
2022/05/17 11:50:54;;;;;;;4.23;1.70;;;28.40;96.40;;;;;;5029205;28;20932;-82
2022/05/17 11:53:23;;;;;;;3.33;1.87;;;28.20;96.00;;;;;;5017775;28;20454;-82
2022/05/17 11:56:26;;;;;;;2.63;1.47;;;27.90;95.50;;;;;;5013013;28;20470;-80
2022/05/17 11:59:19;;;;;;;3.03;2.00;;;27.50;95.00;;;;;;5026779;28;20506;-83
2022/05/17 12:01:49;;;;;;;3.77;2.20;;;27.40;97.00;;;;;;4988188;28;20415;-83
2022/05/17 12:04:21;;;;;;;3.60;1.80;;;27.30;98.20;;;;;;5011186;28;20404;-82
2022/05/17 12:06:55;;;;;;;3.90;1.80;;;27.30;99.50;;;;;;5027340;28;21044;-83
2022/05/17 12:09:24;;;;;;;4.67;1.50;;;27.30;98.90;;;;;;5027551;28;20418;-82
2022/05/17 12:12:25;;;;;;;2.77;1.60;;;27.10;98.80;;;;;;5027058;28;21013;-82
2022/05/17 12:15:26;;;;;;;3.63;1.90;;;27.30;98.70;;;;;;4979770;28;20472;-82
2022/05/17 12:18:10;;;;;;;3.23;1.83;;;27.70;99.10;;;;;;4954984;28;20429;-83
2022/05/17 12:20:57;;;;;;;2.90;1.80;;;28.10;99.40;;;;;;5005980;28;20518;-82
2022/05/17 12:23:46;;;;;;;3.20;2.00;;;28.50;96.90;;;;;;5027260;28;20466;-83
2022/05/17 12:26:48;;;;;;;2.97;1.70;;;28.80;95.30;;;;;;5011342;28;20506;-81
2022/05/17 12:32:07;;;;;;;4.30;1.63;;;29.60;95.50;;;;;;5012318;28;20431;-82
2022/05/17 12:34:33;;;;;;;4.53;1.80;;;29.50;91.90;;;;;;5011297;28;20451;-83
2022/05/17 12:37:10;;;;;;;3.20;1.60;;;29.60;94.00;;;;;;5012070;28;20442;-82
2022/05/17 12:45:15;;;;;;;2.87;1.70;;;29.70;93.70;;;;;;5012111;28;20443;-82
2022/05/17 12:47:48;;;;;;;3.00;1.50;;;29.60;92.00;;;;;;5024537;28;20438;-82
2022/05/17 12:50:18;;;;;;;2.60;1.70;;;29.50;92.20;;;;;;5031642;28;20399;-82
2022/05/17 12:52:46;;;;;;;3.50;2.00;;;29.40;90.80;;;;;;5047203;28;20515;-83
2022/05/17 12:55:32;;;;;;;3.10;1.60;;;29.60;90.50;;;;;;5030032;28;20476;-82
2022/05/17 12:58:10;;;;;;;4.60;1.53;;;29.60;92.00;;;;;;5047484;28;20407;-83
2022/05/17 13:00:36;;;;;;;3.20;1.50;;;29.80;92.20;;;;;;5046499;28;20472;-83
2022/05/17 13:03:15;;;;;;;4.10;1.43;;;29.80;90.60;;;;;;5028933;28;20956;-83
2022/05/17 13:05:46;;;;;;;3.70;1.60;;;29.80;90.40;;;;;;5011498;28;20827;-83
2022/05/17 13:08:19;;;;;;;2.87;2.40;;;30.10;90.80;;;;;;5010682;28;20831;-83
2022/05/17 13:10:59;;;;;;;3.83;1.57;;;30.20;91.10;;;;;;5013798;28;20414;-82
2022/05/17 13:13:24;;;;;;;2.90;1.60;;;30.20;88.70;;;;;;5015858;28;20400;-83
2022/05/17 13:15:54;;;;;;;2.40;1.50;;;30.00;90.30;;;;;;5014266;28;20479;-82
2022/05/17 13:18:20;;;;;;;2.50;1.50;;;29.60;87.10;;;;;;5014405;28;20178;-82
2022/05/17 13:20:48;;;;;;;3.33;1.90;;;29.40;88.30;;;;;;5014073;28;20414;-83
2022/05/17 13:23:17;;;;;;;2.50;1.57;;;29.20;89.10;;;;;;5014357;28;20478;-83
2022/05/17 13:25:45;;;;;;;2.87;1.67;;;28.90;88.50;;;;;;5014254;28;20890;-83
2022/05/17 13:28:11;;;;;;;2.53;1.50;;;28.60;88.80;;;;;;5014078;28;20429;-84
2022/05/17 13:30:47;;;;;;;3.00;1.80;;;28.50;90.60;;;;;;5013960;28;21063;-83
2022/05/17 13:33:28;;;;;;;2.70;1.60;;;28.50;92.60;;;;;;5023155;28;20446;-80
2022/05/17 13:36:10;;;;;;;4.47;1.77;;;28.70;93.20;;;;;;5013745;28;20474;-81